»·PEaware :: N800DW TNCM-MDPC

N800DW :: TNCM-MDPC

FLIGHT INFORMATION

Flight Status: Arrived
Operator: Privately registered:
United States
More flights under this callsign
Pilot: Scott L. (17677)
Aircraft: Unknown
(EPIC)
More flights by this aircraft type
Origin: TNCM Princess Juliana Intl
Netherlands Antilles
Destination: MDPC Punta Cana Intl
Dominican Republic
More flights between these airports :: More routes between these airports
Route: JUICE B520 STT RTE6 SJU RTE2 BQN B520 ANTEX
File this flight plan on PilotEdge
Remarks:
Altitude:
(Current/Filed)
24,000ft
Speed:
(Current/Filed)
280kts
Departed: 15-Apr-18 08:31 AM
Arrived: 15-Apr-18 09:20 AM
Distance/Time
Traveled:
301nm/0:49
Distance/Time
To Go:
Arrived

Flight Plot

Page will automatically refresh every two minutes.

Flight plan parsing failed; only flown route is shown


Map Options




Map Legend


Flown Route
Filed Route
Departure Airport
Arrival Airport
Navaid (VOR, NDB)
Fix

Horizontal Profiles

Position Reports

Time Latitude Longitude Heading Altitude Ground
Speed
15-Apr-18 08:26 18.042075 -63.115557 232 16ft 0kts
15-Apr-18 08:27 18.042027 -63.115618 225 16ft 5kts
15-Apr-18 08:28 18.041434 -63.115793 213 16ft 10kts
15-Apr-18 08:29 18.039418 -63.119479 113 16ft 10kts
15-Apr-18 08:30 18.034300 -63.093188 145 955ft 193kts
15-Apr-18 08:31 18.001573 -63.117940 245 4069ft 214kts
15-Apr-18 08:32 17.967921 -63.169098 222 7555ft 221kts
15-Apr-18 08:33 17.922200 -63.212840 233 10856ft 232kts
15-Apr-18 08:34 17.935728 -63.278820 295 13645ft 249kts
15-Apr-18 08:35 17.967383 -63.345003 298 16024ft 260kts
15-Apr-18 08:36 18.001823 -63.413191 299 18048ft 269kts
15-Apr-18 08:37 18.037561 -63.483396 299 19768ft 277kts
15-Apr-18 08:38 18.074188 -63.555350 300 21220ft 284kts
15-Apr-18 08:39 18.111800 -63.629318 300 22467ft 289kts
15-Apr-18 08:40 18.137452 -63.709669 281 23499ft 297kts
15-Apr-18 08:41 18.202377 -64.091519 280 24029ft 314kts
15-Apr-18 08:42 18.299762 -64.680667 280 24026ft 331kts
15-Apr-18 08:43 18.350351 -64.991005 280 24020ft 338kts
15-Apr-18 08:44 18.335764 -65.087618 251 24019ft 340kts
15-Apr-18 08:45 18.368247 -65.607312 283 24016ft 341kts
15-Apr-18 08:46 18.388168 -65.704429 282 24016ft 342kts
15-Apr-18 08:47 18.408176 -65.802377 282 24016ft 342kts
15-Apr-18 08:48 18.428005 -65.899745 282 24016ft 342kts
15-Apr-18 08:49 18.445600 -65.997620 275 24022ft 342kts
15-Apr-18 08:50 18.451519 -66.097753 273 24018ft 343kts
15-Apr-18 08:51 18.456518 -66.198194 273 24018ft 343kts
15-Apr-18 08:52 18.477569 -66.642067 272 24021ft 343kts
15-Apr-18 08:53 18.481956 -66.743191 272 23506ft 355kts
15-Apr-18 08:54 18.486459 -66.847569 272 22901ft 360kts
15-Apr-18 08:55 18.491150 -66.953267 272 22270ft 363kts
15-Apr-18 08:56 18.495864 -67.060162 272 21373ft 368kts
15-Apr-18 08:57 18.496746 -67.168974 268 20009ft 379kts
15-Apr-18 08:58 18.494748 -67.277792 268 18364ft 348kts
15-Apr-18 08:59 18.492843 -67.374374 268 16658ft 318kts
15-Apr-18 09:00 18.490966 -67.465624 268 14967ft 308kts
15-Apr-18 09:01 18.489090 -67.555165 268 13277ft 303kts
15-Apr-18 09:02 18.487204 -67.643530 267 11591ft 301kts
15-Apr-18 09:03 18.485313 -67.730076 267 9907ft 298kts
15-Apr-18 09:04 18.483345 -67.817897 267 8207ft 310kts
15-Apr-18 09:05 18.479702 -67.977845 267 7998ft 294kts
15-Apr-18 09:06 18.486920 -68.064001 276 7299ft 302kts
15-Apr-18 09:07 18.497164 -68.152661 276 6103ft 302kts
15-Apr-18 09:08 18.507104 -68.237663 277 4901ft 287kts
15-Apr-18 09:09 18.503682 -68.319740 264 4003ft 268kts
15-Apr-18 09:10 18.497258 -68.396295 264 3370ft 267kts
15-Apr-18 09:11 18.490653 -68.472733 264 2997ft 246kts
15-Apr-18 09:12 18.500033 -68.535662 336 2698ft 227kts
15-Apr-18 09:13 18.545966 -68.530442 61 2243ft 151kts
15-Apr-18 09:14 18.555308 -68.494356 82 2047ft 118kts
15-Apr-18 09:15 18.559116 -68.457830 84 1532ft 101kts
15-Apr-18 09:16 18.561851 -68.427380 84 991ft 114kts
15-Apr-18 09:17 18.564582 -68.396243 84 425ft 102kts
15-Apr-18 09:18 18.566885 -68.369535 83 40ft 41kts
15-Apr-18 09:19 18.565186 -68.368941 263 40ft 6kts
15-Apr-18 09:20 18.565162 -68.369177 262 40ft 10kts
15-Apr-18 09:21 18.565162 -68.369177 262 40ft 10kts
15-Apr-18 09:22 18.565162 -68.369177 262 40ft 10kts
15-Apr-18 09:23 18.565162 -68.369177 262 40ft 10kts
15-Apr-18 09:24 18.565162 -68.369177 262 40ft 10kts
15-Apr-18 09:25 18.565162 -68.369177 262 40ft 10kts
15-Apr-18 09:26 18.565162 -68.369177 262 40ft 10kts
15-Apr-18 09:27 18.565162 -68.369177 262 40ft 10kts
15-Apr-18 09:28 18.565162 -68.369177 262 40ft 10kts
15-Apr-18 09:29 18.565162 -68.369177 262 40ft 10kts
15-Apr-18 09:30 18.565162 -68.369177 262 40ft 10kts
15-Apr-18 09:31 18.565162 -68.369177 262 40ft 10kts
15-Apr-18 09:32 18.565162 -68.369177 262 40ft 10kts
15-Apr-18 09:33 18.565162 -68.369177 262 40ft 10kts

Navigation Log

Ident Type
Flight plan parsing failed, navigation log unavailable